Wichita, KS (67226)

6:39 PM CDT on September 17, 2014 (GMT -0500)
Shockerville | Change Station
CLOSE
Current Station
Personal Weather Station
Location: Wichita, KS
Elevation: 1421 ft
Nearby Weather Stations

Elev 1421 ft 37.73 °N, 97.24 °W | Updated 7 seconds ago

Clear
Clear
91.9 °F
Feels Like 93 °F
N
0.0
Wind Variable Wind from SSE
Gusts 0.0 mph

Today
High -- | Low -- °F
--% Chance of Precip.
Yesterday
High -- | Low -- °F
Precip. -- in
7:12 AM 7:33 PM
Waning Crescent, 32% visible
Pressure 29.76 in
Visibility 10.0 miles
Clouds Clear
Heat Index 93 °F
Dew Point 63 °F
Humidity 38%
Rainfall 0.00 in
Snow Depth Not available.
UV 1 out of 12
Pollen 7.90 out of 12
Air Quality Not available.
Flu Activity Not available.
METAR KAAO 172254Z AUTO 17004KT 10SM CLR 34/14 A2981 RMK AO2 SLP078 T03440139

More Conditions Fewer Conditions

Pressure 29.76 in
Visibility 10.0 miles
Clouds Clear
Heat Index 93 °F
Dew Point 63 °F
Humidity 38%
Rainfall 0.00 in
Snow Depth Not available.
UV 1 out of 12
Pollen 7.90 out of 12
Air Quality Not available.
Flu Activity Not available.
METAR KAAO 172254Z AUTO 17004KT 10SM CLR 34/14 A2981 RMK AO2 SLP078 T03440139

More Conditions Fewer Conditions

10-Day Weather Forecast

Almanac

Astronomy

Sep. 17, 2014 Rise Set
Actual Time 7:12 AM CDT 7:33 PM CDT
Civil Twilight 6:46 AM CDT 7:59 PM CDT
Nautical Twilight 6:15 AM CDT 8:30 PM CDT
Astronomical Twilight 5:44 AM CDT 9:01 PM CDT
Moon 1:18 AM CDT 3:40 PM CDT
Length of Visible Light 13h 13m
Length of Day
12h 21m
Tomorrow will be 2m 25s shorter.
Waning Crescent, 32% of the Moon is Illuminated
Today
Waning Crescent
Sep 24
New
Oct 1
First Quarter
Oct 8
Full
Oct 15
Last Quarter

Today's Extremes

State Highs State Lows

Community

WunderPhotos

Upload Photos

1,754,192 photos uploaded!

Nearby

Snow Depth

Station Depth Elevation
No new snow has been reported.

Earthquake Activity

City Distance Mag. Time & Date
Helena, Oklahoma 111 miles 2.8 4:01 PM CDT
2014-09-17
Perry, Oklahoma 108 miles 2.5 2:57 PM CDT
2014-09-17
Cherokee, Oklahoma 82 miles 2.7 2:05 PM CDT
2014-09-17
Perry, Oklahoma 107 miles 2.7 1:28 PM CDT
2014-09-17
Minimum magnitude displayed is 2.5.

Coastal Water Temperatures

Place Temperature
No Stations Reporting

Nearby Weather Stations